sensor_id;sensor_type;location;lat;lon;timestamp;pressure;altitude;pressure_sealevel;temperature;humidity
16595;BME280;8410;52.532;13.336;2022-09-01T00:00:30;101889.16;;;17.86;71.06
16595;BME280;8410;52.532;13.336;2022-09-01T00:02:59;101898.50;;;17.18;73.54
16595;BME280;8410;52.532;13.336;2022-09-01T00:05:28;101895.81;;;16.87;75.01
16595;BME280;8410;52.532;13.336;2022-09-01T00:07:58;101889.88;;;17.34;74.18
16595;BME280;8410;52.532;13.336;2022-09-01T00:10:26;101892.53;;;17.40;73.30
16595;BME280;8410;52.532;13.336;2022-09-01T00:12:54;101893.16;;;16.81;74.51
16595;BME280;8410;52.532;13.336;2022-09-01T00:15:22;101894.19;;;17.18;73.34
16595;BME280;8410;52.532;13.336;2022-09-01T00:17:50;101899.38;;;17.18;73.43
16595;BME280;8410;52.532;13.336;2022-09-01T00:20:20;101896.78;;;17.20;73.54
16595;BME280;8410;52.532;13.336;2022-09-01T00:22:48;101886.50;;;17.60;71.63
16595;BME280;8410;52.532;13.336;2022-09-01T00:25:17;101884.75;;;17.67;71.96
16595;BME280;8410;52.532;13.336;2022-09-01T00:27:46;101890.81;;;17.53;72.37
16595;BME280;8410;52.532;13.336;2022-09-01T00:30:14;101894.19;;;17.14;73.00
16595;BME280;8410;52.532;13.336;2022-09-01T00:32:42;101881.25;;;17.49;72.27
16595;BME280;8410;52.532;13.336;2022-09-01T00:35:12;101884.81;;;18.14;69.74
16595;BME280;8410;52.532;13.336;2022-09-01T00:37:42;101880.47;;;17.99;70.13
16595;BME280;8410;52.532;13.336;2022-09-01T00:40:13;101878.72;;;18.20;68.87
16595;BME280;8410;52.532;13.336;2022-09-01T00:42:42;101886.56;;;17.97;70.21
16595;BME280;8410;52.532;13.336;2022-09-01T00:45:11;101890.03;;;18.26;69.08
16595;BME280;8410;52.532;13.336;2022-09-01T00:47:40;101878.72;;;18.40;68.15
16595;BME280;8410;52.532;13.336;2022-09-01T00:50:12;101883.09;;;18.10;69.44
16595;BME280;8410;52.532;13.336;2022-09-01T00:52:47;101876.06;;;18.52;68.39
16595;BME280;8410;52.532;13.336;2022-09-01T00:55:24;101867.31;;;18.81;67.73
16595;BME280;8410;52.532;13.336;2022-09-01T00:57:54;101878.75;;;18.11;68.58
16595;BME280;8410;52.532;13.336;2022-09-01T01:00:26;101883.88;;;18.60;68.38
16595;BME280;8410;52.532;13.336;2022-09-01T01:02:54;101870.91;;;18.24;69.42
16595;BME280;8410;52.532;13.336;2022-09-01T01:05:24;101877.81;;;18.44;68.75
16595;BME280;8410;52.532;13.336;2022-09-01T01:08:03;101877.75;;;18.71;67.01
16595;BME280;8410;52.532;13.336;2022-09-01T01:10:38;101873.38;;;18.73;67.64
16595;BME280;8410;52.532;13.336;2022-09-01T01:13:10;101872.50;;;18.87;67.15
16595;BME280;8410;52.532;13.336;2022-09-01T01:15:39;101876.09;;;18.40;67.93
16595;BME280;8410;52.532;13.336;2022-09-01T01:18:10;101876.13;;;18.00;69.56
16595;BME280;8410;52.532;13.336;2022-09-01T01:20:38;101867.38;;;18.53;68.69
16595;BME280;8410;52.532;13.336;2022-09-01T01:23:33;101872.59;;;18.47;68.71
16595;BME280;8410;52.532;13.336;2022-09-01T01:26:08;101873.53;;;18.15;69.93
16595;BME280;8410;52.532;13.336;2022-09-01T01:28:39;101873.50;;;17.91;70.51
16595;BME280;8410;52.532;13.336;2022-09-01T01:31:12;101882.22;;;17.90;69.30
16595;BME280;8410;52.532;13.336;2022-09-01T01:33:45;101885.66;;;17.67;72.10
16595;BME280;8410;52.532;13.336;2022-09-01T01:36:18;101880.38;;;17.38;72.00
16595;BME280;8410;52.532;13.336;2022-09-01T01:38:48;101884.69;;;17.28;72.43
16595;BME280;8410;52.532;13.336;2022-09-01T01:41:17;101882.81;;;16.90;74.44
16595;BME280;8410;52.532;13.336;2022-09-01T01:43:47;101883.81;;;17.34;73.00
16595;BME280;8410;52.532;13.336;2022-09-01T01:46:16;101875.16;;;17.47;73.09
16595;BME280;8410;52.532;13.336;2022-09-01T01:48:45;101875.16;;;17.38;73.06
16595;BME280;8410;52.532;13.336;2022-09-01T01:51:16;101876.91;;;17.47;72.38
16595;BME280;8410;52.532;13.336;2022-09-01T01:53:47;101875.19;;;17.58;72.43
16595;BME280;8410;52.532;13.336;2022-09-01T01:56:20;101869.19;;;17.90;71.72
16595;BME280;8410;52.532;13.336;2022-09-01T01:58:51;101862.25;;;17.89;71.46
16595;BME280;8410;52.532;13.336;2022-09-01T02:01:22;101863.97;;;18.16;70.35
16595;BME280;8410;52.532;13.336;2022-09-01T02:03:51;101869.19;;;17.90;70.62
16595;BME280;8410;52.532;13.336;2022-09-01T02:06:23;101863.94;;;17.68;71.88
16595;BME280;8410;52.532;13.336;2022-09-01T02:08:54;101880.97;;;16.74;77.22
16595;BME280;8410;52.532;13.336;2022-09-01T02:11:24;101863.03;;;17.58;73.47
16595;BME280;8410;52.532;13.336;2022-09-01T02:13:53;101873.22;;;16.82;75.19
16595;BME280;8410;52.532;13.336;2022-09-01T02:16:24;101872.47;;;17.09;75.61
16595;BME280;8410;52.532;13.336;2022-09-01T02:18:52;101876.84;;;17.27;74.82
16595;BME280;8410;52.532;13.336;2022-09-01T02:21:23;101885.84;;;16.25;77.46
16595;BME280;8410;52.532;13.336;2022-09-01T02:23:56;101880.09;;;16.73;76.87
16595;BME280;8410;52.532;13.336;2022-09-01T02:26:32;101875.94;;;17.15;75.18
16595;BME280;8410;52.532;13.336;2022-09-01T02:29:03;101869.13;;;17.77;73.14
16595;BME280;8410;52.532;13.336;2022-09-01T02:31:33;101874.25;;;17.22;74.01
16595;BME280;8410;52.532;13.336;2022-09-01T02:34:05;101875.91;;;17.05;74.82
16595;BME280;8410;52.532;13.336;2022-09-01T02:36:37;101868.16;;;17.17;74.53
16595;BME280;8410;52.532;13.336;2022-09-01T02:39:13;101865.56;;;17.29;74.70
16595;BME280;8410;52.532;13.336;2022-09-01T02:41:43;101869.91;;;17.19;74.62
16595;BME280;8410;52.532;13.336;2022-09-01T02:44:11;101868.97;;;16.97;76.22
16595;BME280;8410;52.532;13.336;2022-09-01T02:46:42;101868.09;;;17.02;76.08
16595;BME280;8410;52.532;13.336;2022-09-01T02:49:13;101863.91;;;17.37;74.38
16595;BME280;8410;52.532;13.336;2022-09-01T02:51:48;101869.75;;;16.81;76.92
16595;BME280;8410;52.532;13.336;2022-09-01T02:54:21;101861.28;;;17.39;74.21
16595;BME280;8410;52.532;13.336;2022-09-01T02:56:52;101874.81;;;16.61;77.31
16595;BME280;8410;52.532;13.336;2022-09-01T02:59:22;101872.28;;;16.72;77.84
16595;BME280;8410;52.532;13.336;2022-09-01T03:01:53;101870.16;;;16.11;80.03
16595;BME280;8410;52.532;13.336;2022-09-01T03:04:23;101861.28;;;15.83;80.98
16595;BME280;8410;52.532;13.336;2022-09-01T03:06:52;101861.06;;;16.81;78.00
16595;BME280;8410;52.532;13.336;2022-09-01T03:09:24;101861.84;;;16.63;78.60
16595;BME280;8410;52.532;13.336;2022-09-01T03:11:53;101863.59;;;16.73;77.63
16595;BME280;8410;52.532;13.336;2022-09-01T03:14:22;101860.22;;;16.82;76.47
16595;BME280;8410;52.532;13.336;2022-09-01T03:16:50;101867.84;;;16.54;79.38
16595;BME280;8410;52.532;13.336;2022-09-01T03:19:18;101862.03;;;17.00;77.43
16595;BME280;8410;52.532;13.336;2022-09-01T03:21:47;101850.81;;;17.20;76.89
16595;BME280;8410;52.532;13.336;2022-09-01T03:24:16;101859.19;;;16.60;79.25
16595;BME280;8410;52.532;13.336;2022-09-01T03:26:46;101863.53;;;16.54;77.80
16595;BME280;8410;52.532;13.336;2022-09-01T03:29:18;101853.38;;;17.04;77.01
16595;BME280;8410;52.532;13.336;2022-09-01T03:31:46;101847.34;;;17.14;75.97
16595;BME280;8410;52.532;13.336;2022-09-01T03:34:14;101843.84;;;17.12;76.63
16595;BME280;8410;52.532;13.336;2022-09-01T03:36:45;101864.06;;;16.07;80.45
16595;BME280;8410;52.532;13.336;2022-09-01T03:39:17;101859.91;;;16.31;79.63
16595;BME280;8410;52.532;13.336;2022-09-01T03:41:45;101849.00;;;16.96;77.79
16595;BME280;8410;52.532;13.336;2022-09-01T03:44:13;101860.22;;;16.86;77.99
16595;BME280;8410;52.532;13.336;2022-09-01T03:46:43;101861.59;;;16.26;79.53
16595;BME280;8410;52.532;13.336;2022-09-01T03:49:11;101866.13;;;16.59;77.38
16595;BME280;8410;52.532;13.336;2022-09-01T03:51:41;101868.63;;;15.41;82.48
16595;BME280;8410;52.532;13.336;2022-09-01T03:54:11;101868.44;;;15.26;83.53
16595;BME280;8410;52.532;13.336;2022-09-01T03:56:39;101857.97;;;16.02;81.64
16595;BME280;8410;52.532;13.336;2022-09-01T03:59:09;101863.53;;;16.58;79.24
16595;BME280;8410;52.532;13.336;2022-09-01T04:01:44;101868.50;;;16.21;80.06
16595;BME280;8410;52.532;13.336;2022-09-01T04:04:13;101861.00;;;16.71;78.34
16595;BME280;8410;52.532;13.336;2022-09-01T04:06:42;101863.41;;;16.41;79.05
16595;BME280;8410;52.532;13.336;2022-09-01T04:09:11;101857.16;;;16.06;81.25
16595;BME280;8410;52.532;13.336;2022-09-01T04:11:39;101858.84;;;16.06;80.92
16595;BME280;8410;52.532;13.336;2022-09-01T04:14:12;101859.13;;;16.49;79.57
16595;BME280;8410;52.532;13.336;2022-09-01T04:16:43;101853.97;;;16.52;77.79
16595;BME280;8410;52.532;13.336;2022-09-01T04:19:35;101861.50;;;16.14;79.41
16595;BME280;8410;52.532;13.336;2022-09-01T04:22:05;101854.41;;;15.88;80.67
16595;BME280;8410;52.532;13.336;2022-09-01T04:24:40;101866.63;;;15.17;83.32
16595;BME280;8410;52.532;13.336;2022-09-01T04:27:13;101863.97;;;14.47;87.28
16595;BME280;8410;52.532;13.336;2022-09-01T04:29:43;101852.22;;;15.44;85.03
16595;BME280;8410;52.532;13.336;2022-09-01T04:32:13;101854.81;;;15.44;81.81
16595;BME280;8410;52.532;13.336;2022-09-01T04:34:42;101857.66;;;14.91;85.04
16595;BME280;8410;52.532;13.336;2022-09-01T04:37:13;101865.63;;;15.06;84.49
16595;BME280;8410;52.532;13.336;2022-09-01T04:39:48;101861.88;;;15.57;83.25
16595;BME280;8410;52.532;13.336;2022-09-01T04:42:24;101866.28;;;15.68;82.63
16595;BME280;8410;52.532;13.336;2022-09-01T04:44:54;101866.88;;;16.38;79.49
16595;BME280;8410;52.532;13.336;2022-09-01T04:47:25;101867.53;;;16.08;79.18
16595;BME280;8410;52.532;13.336;2022-09-01T04:50:03;101875.66;;;14.78;85.32
16595;BME280;8410;52.532;13.336;2022-09-01T04:52:39;101865.25;;;15.49;83.92
16595;BME280;8410;52.532;13.336;2022-09-01T04:55:09;101867.31;;;15.82;82.96
16595;BME280;8410;52.532;13.336;2022-09-01T04:57:44;101867.16;;;15.68;82.17
16595;BME280;8410;52.532;13.336;2022-09-01T05:00:14;101869.13;;;15.08;83.93
16595;BME280;8410;52.532;13.336;2022-09-01T05:02:52;101870.16;;;16.09;80.56
16595;BME280;8410;52.532;13.336;2022-09-01T05:05:22;101866.75;;;16.20;79.92
16595;BME280;8410;52.532;13.336;2022-09-01T05:07:49;101872.94;;;16.40;78.33
16595;BME280;8410;52.532;13.336;2022-09-01T05:10:20;101873.69;;;15.29;81.89
16595;BME280;8410;52.532;13.336;2022-09-01T05:12:48;101875.19;;;15.93;81.39
16595;BME280;8410;52.532;13.336;2022-09-01T05:15:18;101876.47;;;15.46;82.33
16595;BME280;8410;52.532;13.336;2022-09-01T05:17:46;101866.59;;;16.00;81.17
16595;BME280;8410;52.532;13.336;2022-09-01T05:20:16;101872.81;;;16.17;80.94
16595;BME280;8410;52.532;13.336;2022-09-01T05:22:46;101861.47;;;16.07;80.39
16595;BME280;8410;52.532;13.336;2022-09-01T05:25:14;101862.91;;;15.72;80.28
16595;BME280;8410;52.532;13.336;2022-09-01T05:27:44;101871.06;;;15.28;83.86
16595;BME280;8410;52.532;13.336;2022-09-01T05:30:16;101880.63;;;16.22;80.21
16595;BME280;8410;52.532;13.336;2022-09-01T05:32:44;101874.19;;;15.77;80.61
16595;BME280;8410;52.532;13.336;2022-09-01T05:35:14;101867.56;;;16.14;79.58
16595;BME280;8410;52.532;13.336;2022-09-01T05:37:43;101870.94;;;16.02;80.76
16595;BME280;8410;52.532;13.336;2022-09-01T05:40:11;101877.19;;;16.26;81.27
16595;BME280;8410;52.532;13.336;2022-09-01T05:42:42;101874.88;;;15.63;82.67
16595;BME280;8410;52.532;13.336;2022-09-01T05:45:10;101876.84;;;15.84;82.66
16595;BME280;8410;52.532;13.336;2022-09-01T05:47:39;101877.22;;;16.29;81.21
16595;BME280;8410;52.532;13.336;2022-09-01T05:50:09;101873.94;;;16.62;78.23
16595;BME280;8410;52.532;13.336;2022-09-01T05:52:40;101876.59;;;16.68;78.87
16595;BME280;8410;52.532;13.336;2022-09-01T05:55:11;101877.59;;;16.89;78.00
16595;BME280;8410;52.532;13.336;2022-09-01T05:57:41;101872.31;;;16.76;77.44
16595;BME280;8410;52.532;13.336;2022-09-01T06:00:11;101876.69;;;16.82;78.39
16595;BME280;8410;52.532;13.336;2022-09-01T06:02:41;101877.38;;;16.53;77.03
16595;BME280;8410;52.532;13.336;2022-09-01T06:05:10;101881.00;;;16.77;79.33
16595;BME280;8410;52.532;13.336;2022-09-01T06:07:38;101877.97;;;16.16;79.68
16595;BME280;8410;52.532;13.336;2022-09-01T06:10:07;101876.41;;;16.36;80.22
16595;BME280;8410;52.532;13.336;2022-09-01T06:12:37;101872.03;;;16.32;80.27
16595;BME280;8410;52.532;13.336;2022-09-01T06:15:07;101865.56;;;17.14;77.31
16595;BME280;8410;52.532;13.336;2022-09-01T06:17:41;101877.31;;;16.43;79.32
16595;BME280;8410;52.532;13.336;2022-09-01T06:20:10;101870.81;;;17.32;76.72
16595;BME280;8410;52.532;13.336;2022-09-01T06:22:38;101879.19;;;16.70;77.15
16595;BME280;8410;52.532;13.336;2022-09-01T06:25:08;101871.63;;;17.24;77.33
16595;BME280;8410;52.532;13.336;2022-09-01T06:27:37;101871.47;;;16.78;77.10
16595;BME280;8410;52.532;13.336;2022-09-01T06:30:08;101877.69;;;17.15;77.12
16595;BME280;8410;52.532;13.336;2022-09-01T06:32:41;101869.16;;;18.26;73.04
16595;BME280;8410;52.532;13.336;2022-09-01T06:35:11;101878.72;;;17.98;72.80
16595;BME280;8410;52.532;13.336;2022-09-01T06:37:39;101876.16;;;17.94;74.32
16595;BME280;8410;52.532;13.336;2022-09-01T06:40:12;101883.88;;;17.55;73.52
16595;BME280;8410;52.532;13.336;2022-09-01T06:42:48;101895.75;;;16.81;77.14
16595;BME280;8410;52.532;13.336;2022-09-01T06:45:20;101889.59;;;16.73;76.93
16595;BME280;8410;52.532;13.336;2022-09-01T06:47:50;101893.31;;;17.15;76.11
16595;BME280;8410;52.532;13.336;2022-09-01T06:50:26;101877.78;;;17.61;74.66
16595;BME280;8410;52.532;13.336;2022-09-01T06:53:15;101887.41;;;17.90;73.79
16595;BME280;8410;52.532;13.336;2022-09-01T06:56:00;101877.88;;;18.28;72.43
16595;BME280;8410;52.532;13.336;2022-09-01T06:58:31;101877.84;;;18.32;72.19
16595;BME280;8410;52.532;13.336;2022-09-01T07:01:04;101886.47;;;18.64;71.01
16595;BME280;8410;52.532;13.336;2022-09-01T07:03:33;101883.06;;;18.22;72.40
16595;BME280;8410;52.532;13.336;2022-09-01T07:06:05;101884.78;;;18.48;71.95
16595;BME280;8410;52.532;13.336;2022-09-01T07:08:36;101885.59;;;18.59;70.94
16595;BME280;8410;52.532;13.336;2022-09-01T07:11:29;101886.41;;;18.89;70.03
16595;BME280;8410;52.532;13.336;2022-09-01T07:14:19;101890.03;;;18.14;72.60
16595;BME280;8410;52.532;13.336;2022-09-01T07:16:48;101893.41;;;18.70;71.41
16595;BME280;8410;52.532;13.336;2022-09-01T07:19:36;101887.28;;;18.86;69.64
16595;BME280;8410;52.532;13.336;2022-09-01T07:22:20;101890.88;;;18.32;70.75
16595;BME280;8410;52.532;13.336;2022-09-01T07:25:09;101898.72;;;17.89;73.88
16595;BME280;8410;52.532;13.336;2022-09-01T07:27:40;101897.84;;;18.10;72.30
16595;BME280;8410;52.532;13.336;2022-09-01T07:30:20;101898.69;;;18.25;71.49
16595;BME280;8410;52.532;13.336;2022-09-01T07:32:50;101887.41;;;18.31;72.08
16595;BME280;8410;52.532;13.336;2022-09-01T07:35:20;101887.38;;;18.51;71.22
16595;BME280;8410;52.532;13.336;2022-09-01T07:37:50;101886.44;;;18.70;70.60
16595;BME280;8410;52.532;13.336;2022-09-01T07:40:40;101892.63;;;17.88;71.63
16595;BME280;8410;52.532;13.336;2022-09-01T07:43:28;101897.84;;;18.00;72.29
16595;BME280;8410;52.532;13.336;2022-09-01T07:46:04;101891.75;;;18.21;72.07
16595;BME280;8410;52.532;13.336;2022-09-01T07:48:54;101892.53;;;18.72;70.00
16595;BME280;8410;52.532;13.336;2022-09-01T07:51:42;101888.06;;;19.11;69.50
16595;BME280;8410;52.532;13.336;2022-09-01T07:54:11;101893.44;;;18.75;67.97
16595;BME280;8410;52.532;13.336;2022-09-01T07:56:39;101892.56;;;18.57;69.09
16595;BME280;8410;52.532;13.336;2022-09-01T07:59:07;101902.19;;;18.21;69.96
16595;BME280;8410;52.532;13.336;2022-09-01T08:01:42;101903.06;;;17.94;70.56
16595;BME280;8410;52.532;13.336;2022-09-01T08:04:11;101908.22;;;18.49;68.51
16595;BME280;8410;52.532;13.336;2022-09-01T08:06:39;101902.97;;;18.60;69.48
16595;BME280;8410;52.532;13.336;2022-09-01T08:09:07;101903.88;;;18.59;69.32
16595;BME280;8410;52.532;13.336;2022-09-01T08:11:50;101907.34;;;18.61;68.90
16595;BME280;8410;52.532;13.336;2022-09-01T08:14:34;101913.41;;;18.60;68.64
16595;BME280;8410;52.532;13.336;2022-09-01T08:17:03;101905.63;;;18.48;68.38
16595;BME280;8410;52.532;13.336;2022-09-01T08:19:51;101910.84;;;18.51;68.29
16595;BME280;8410;52.532;13.336;2022-09-01T08:22:20;101902.06;;;18.84;67.41
16595;BME280;8410;52.532;13.336;2022-09-01T08:24:52;101898.31;;;19.48;66.11
16595;BME280;8410;52.532;13.336;2022-09-01T08:27:20;101900.19;;;19.28;64.76
16595;BME280;8410;52.532;13.336;2022-09-01T08:29:48;101897.75;;;18.79;65.44
16595;BME280;8410;52.532;13.336;2022-09-01T08:32:18;101901.00;;;19.30;64.85
16595;BME280;8410;52.532;13.336;2022-09-01T08:34:47;101897.53;;;19.29;64.81
16595;BME280;8410;52.532;13.336;2022-09-01T08:37:15;101903.63;;;19.36;63.74
16595;BME280;8410;52.532;13.336;2022-09-01T08:39:42;101897.59;;;19.23;63.05
16595;BME280;8410;52.532;13.336;2022-09-01T08:42:25;101903.78;;;18.99;63.72
16595;BME280;8410;52.532;13.336;2022-09-01T08:45:10;101901.13;;;19.10;64.02
16595;BME280;8410;52.532;13.336;2022-09-01T08:47:41;101912.50;;;18.89;64.02
16595;BME280;8410;52.532;13.336;2022-09-01T08:50:32;101897.75;;;18.65;65.81
16595;BME280;8410;52.532;13.336;2022-09-01T08:53:08;101882.53;;;19.67;62.66
16595;BME280;8410;52.532;13.336;2022-09-01T08:55:43;101896.41;;;19.81;61.52
16595;BME280;8410;52.532;13.336;2022-09-01T08:58:16;101891.47;;;19.26;63.28
16595;BME280;8410;52.532;13.336;2022-09-01T09:00:52;101900.28;;;19.00;63.70
16595;BME280;8410;52.532;13.336;2022-09-01T09:03:37;101888.91;;;19.18;64.53
16595;BME280;8410;52.532;13.336;2022-09-01T09:06:16;101879.88;;;19.76;62.88
16595;BME280;8410;52.532;13.336;2022-09-01T09:08:54;101886.59;;;20.08;62.22
16595;BME280;8410;52.532;13.336;2022-09-01T09:11:48;101882.63;;;19.54;63.62
16595;BME280;8410;52.532;13.336;2022-09-01T09:14:44;101884.22;;;19.77;63.68
16595;BME280;8410;52.532;13.336;2022-09-01T09:17:19;101880.34;;;20.24;60.86
16595;BME280;8410;52.532;13.336;2022-09-01T09:19:50;101884.47;;;19.34;62.96
16595;BME280;8410;52.532;13.336;2022-09-01T09:22:19;101879.97;;;19.56;62.69
16595;BME280;8410;52.532;13.336;2022-09-01T09:24:52;101885.53;;;20.27;60.61
16595;BME280;8410;52.532;13.336;2022-09-01T09:27:24;101880.13;;;20.45;60.99
16595;BME280;8410;52.532;13.336;2022-09-01T09:29:56;101878.13;;;20.72;60.78
16595;BME280;8410;52.532;13.336;2022-09-01T09:32:49;101882.16;;;20.13;62.06
16595;BME280;8410;52.532;13.336;2022-09-01T09:35:41;101873.78;;;19.72;61.24
16595;BME280;8410;52.532;13.336;2022-09-01T09:38:20;101869.38;;;19.80;61.03
16595;BME280;8410;52.532;13.336;2022-09-01T09:41:00;101870.50;;;19.41;62.81
16595;BME280;8410;52.532;13.336;2022-09-01T09:43:55;101872.97;;;19.70;61.62
16595;BME280;8410;52.532;13.336;2022-09-01T09:46:33;101870.97;;;19.98;61.12
16595;BME280;8410;52.532;13.336;2022-09-01T09:49:14;101867.41;;;20.07;58.79
16595;BME280;8410;52.532;13.336;2022-09-01T09:52:15;101870.19;;;19.92;58.63
16595;BME280;8410;52.532;13.336;2022-09-01T09:55:00;101869.03;;;20.20;59.46
16595;BME280;8410;52.532;13.336;2022-09-01T09:57:37;101868.13;;;20.23;58.63
16595;BME280;8410;52.532;13.336;2022-09-01T10:00:19;101847.88;;;21.16;58.27
16595;BME280;8410;52.532;13.336;2022-09-01T10:02:56;101865.22;;;20.57;58.17
16595;BME280;8410;52.532;13.336;2022-09-01T10:05:39;101867.53;;;20.81;58.17
16595;BME280;8410;52.532;13.336;2022-09-01T10:08:13;101866.75;;;20.75;58.09
16595;BME280;8410;52.532;13.336;2022-09-01T10:11:04;101862.13;;;20.97;57.46
16595;BME280;8410;52.532;13.336;2022-09-01T10:13:34;101855.63;;;21.24;55.92
16595;BME280;8410;52.532;13.336;2022-09-01T10:16:07;101852.22;;;21.79;53.88
16595;BME280;8410;52.532;13.336;2022-09-01T10:18:40;101856.53;;;21.21;54.71
16595;BME280;8410;52.532;13.336;2022-09-01T10:21:16;101856.88;;;20.95;56.25
16595;BME280;8410;52.532;13.336;2022-09-01T10:23:46;101871.91;;;20.81;55.60
16595;BME280;8410;52.532;13.336;2022-09-01T10:26:18;101866.19;;;20.43;56.63
16595;BME280;8410;52.532;13.336;2022-09-01T10:28:56;101866.22;;;20.40;56.13
16595;BME280;8410;52.532;13.336;2022-09-01T10:31:28;101867.53;;;20.81;54.78
16595;BME280;8410;52.532;13.336;2022-09-01T10:34:02;101849.75;;;21.08;54.20
16595;BME280;8410;52.532;13.336;2022-09-01T10:36:33;101846.94;;;21.23;52.55
16595;BME280;8410;52.532;13.336;2022-09-01T10:39:10;101850.84;;;20.93;53.56
16595;BME280;8410;52.532;13.336;2022-09-01T10:41:49;101860.03;;;21.23;54.06
16595;BME280;8410;52.532;13.336;2022-09-01T10:44:28;101857.28;;;20.63;54.89
16595;BME280;8410;52.532;13.336;2022-09-01T10:47:04;101852.41;;;21.05;53.72
16595;BME280;8410;52.532;13.336;2022-09-01T10:49:59;101854.63;;;20.69;54.73
16595;BME280;8410;52.532;13.336;2022-09-01T10:53:01;101859.13;;;20.56;54.44
16595;BME280;8410;52.532;13.336;2022-09-01T10:55:40;101853.59;;;20.79;53.72
16595;BME280;8410;52.532;13.336;2022-09-01T10:58:45;101862.69;;;20.47;54.40
16595;BME280;8410;52.532;13.336;2022-09-01T11:02:13;101856.63;;;20.41;54.29
16595;BME280;8410;52.532;13.336;2022-09-01T11:05:15;101848.63;;;20.58;53.90
16595;BME280;8410;52.532;13.336;2022-09-01T11:07:43;101846.94;;;20.49;52.92
16595;BME280;8410;52.532;13.336;2022-09-01T11:10:50;101855.81;;;20.37;53.74
16595;BME280;8410;52.532;13.336;2022-09-01T11:13:42;101852.25;;;20.41;52.79
16595;BME280;8410;52.532;13.336;2022-09-01T11:16:34;101845.06;;;20.65;53.27
16595;BME280;8410;52.532;13.336;2022-09-01T11:19:44;101836.19;;;20.78;52.26
16595;BME280;8410;52.532;13.336;2022-09-01T11:22:29;101852.22;;;20.47;51.91
16595;BME280;8410;52.532;13.336;2022-09-01T11:28:46;101844.78;;;20.86;50.79
16595;BME280;8410;52.532;13.336;2022-09-01T11:31:28;101844.94;;;20.77;51.34
16595;BME280;8410;52.532;13.336;2022-09-01T11:34:19;101834.03;;;21.08;50.95
16595;BME280;8410;52.532;13.336;2022-09-01T11:36:57;101830.31;;;21.24;50.25
16595;BME280;8410;52.532;13.336;2022-09-01T11:39:47;101828.09;;;21.58;48.57
16595;BME280;8410;52.532;13.336;2022-09-01T11:42:20;101832.47;;;21.58;47.86
16595;BME280;8410;52.532;13.336;2022-09-01T11:44:59;101833.69;;;21.32;49.32
16595;BME280;8410;52.532;13.336;2022-09-01T11:47:34;101830.03;;;21.46;48.51
16595;BME280;8410;52.532;13.336;2022-09-01T11:50:06;101818.75;;;21.95;47.77
16595;BME280;8410;52.532;13.336;2022-09-01T11:52:37;101809.47;;;22.27;46.67
16595;BME280;8410;52.532;13.336;2022-09-01T11:55:08;101816.78;;;21.55;46.96
16595;BME280;8410;52.532;13.336;2022-09-01T11:57:39;101819.78;;;21.27;47.66
16595;BME280;8410;52.532;13.336;2022-09-01T12:00:12;101819.41;;;21.55;47.53
16595;BME280;8410;52.532;13.336;2022-09-01T12:02:45;101823.00;;;21.48;48.81
16595;BME280;8410;52.532;13.336;2022-09-01T12:05:28;101827.72;;;21.23;48.55
16595;BME280;8410;52.532;13.336;2022-09-01T12:08:01;101823.44;;;21.17;49.52
16595;BME280;8410;52.532;13.336;2022-09-01T12:10:35;101821.81;;;21.10;49.88
16595;BME280;8410;52.532;13.336;2022-09-01T12:13:06;101829.44;;;20.59;52.21
16595;BME280;8410;52.532;13.336;2022-09-01T12:15:38;101831.06;;;20.69;53.20
16595;BME280;8410;52.532;13.336;2022-09-01T12:18:31;101830.66;;;21.00;52.60
16595;BME280;8410;52.532;13.336;2022-09-01T12:21:04;101841.50;;;20.72;52.68
16595;BME280;8410;52.532;13.336;2022-09-01T12:23:36;101827.13;;;21.04;53.01
16595;BME280;8410;52.532;13.336;2022-09-01T12:26:10;101821.91;;;21.04;52.46
16595;BME280;8410;52.532;13.336;2022-09-01T12:28:41;101825.22;;;21.15;52.86
16595;BME280;8410;52.532;13.336;2022-09-01T12:31:17;101824.97;;;21.33;52.39
16595;BME280;8410;52.532;13.336;2022-09-01T12:33:47;101818.31;;;21.08;52.91
16595;BME280;8410;52.532;13.336;2022-09-01T12:36:22;101826.94;;;21.16;52.34
16595;BME280;8410;52.532;13.336;2022-09-01T12:38:52;101829.81;;;20.98;52.15
16595;BME280;8410;52.532;13.336;2022-09-01T12:41:31;101828.94;;;20.99;52.92
16595;BME280;8410;52.532;13.336;2022-09-01T12:44:27;101820.09;;;21.06;52.24
16595;BME280;8410;52.532;13.336;2022-09-01T12:47:00;101818.28;;;21.11;52.14
16595;BME280;8410;52.532;13.336;2022-09-01T12:49:38;101816.28;;;21.28;51.77
16595;BME280;8410;52.532;13.336;2022-09-01T12:52:25;101819.13;;;21.13;51.50
16595;BME280;8410;52.532;13.336;2022-09-01T12:55:11;101805.22;;;22.19;49.97
16595;BME280;8410;52.532;13.336;2022-09-01T12:58:04;101810.47;;;21.68;49.97
16595;BME280;8410;52.532;13.336;2022-09-01T13:00:36;101798.84;;;22.33;49.47
16595;BME280;8410;52.532;13.336;2022-09-01T13:03:12;101793.34;;;21.97;50.13
16595;BME280;8410;52.532;13.336;2022-09-01T13:05:45;101810.03;;;21.93;50.10
16595;BME280;8410;52.532;13.336;2022-09-01T13:08:19;101800.47;;;21.89;50.12
16595;BME280;8410;52.532;13.336;2022-09-01T13:10:50;101798.22;;;21.67;50.91
16595;BME280;8410;52.532;13.336;2022-09-01T13:13:22;101793.59;;;22.33;49.10
16595;BME280;8410;52.532;13.336;2022-09-01T13:15:54;101801.41;;;22.36;49.19
16595;BME280;8410;52.532;13.336;2022-09-01T13:18:25;101799.06;;;21.71;49.40
16595;BME280;8410;52.532;13.336;2022-09-01T13:20:56;101798.19;;;22.63;49.22
16595;BME280;8410;52.532;13.336;2022-09-01T13:23:24;101787.22;;;21.98;50.54
16595;BME280;8410;52.532;13.336;2022-09-01T13:25:55;101779.75;;;22.24;49.98
16595;BME280;8410;52.532;13.336;2022-09-01T13:28:25;101791.41;;;22.53;49.22
16595;BME280;8410;52.532;13.336;2022-09-01T13:30:57;101781.44;;;21.79;49.70